Sharon, Oklahoma
Current Conditions -  °F | °C
As of 7:55 AM on Wednesday 26 Nov 2014 (Local Time) from KWWR Reporting Station
Clear Clear  
Wind Chill: 28°   Ceiling: Unl
Heat Index: 36°   Visibility: 10mi
Dew Point: 32°   Wind: 10mph
Humidity: 87%   Direction: 300°WNW
Pressure: 30.2"   Gusts: NA
Location:  36.28°N, 99.34°W
Report Text: KWWR 261355Z AUTO 30009KT 10SM CLR 02/00 A3020 RMK AO2
Loading
Personal Weather Stations






























Interactive Weather Map New forecast layout! Learn more

10-Day Weather Forecast

Advertisements
Track Severe Weather on mobile